• Join FlightAware (Why Join?)
  • Login
  • US Flag 
02:00PM EDT


 

Airport Tracker/Info


-or-


 

Live Flight TrackerFlight Track Log ✈ N606FT ✈ 01-Nov-2013 ✈ X61 - KVNC

Flight Track Log - Related Links

Times and Time Zones

All times are in EDT time to prevent confusion due to time zone crossing. See the N606FT flight status page for this flight to view local times or setup timezone preferences in your user account.

Time Position Orientation Groundspeed Altitude Reporting Facility
EDT Latitude Longitude Course Direction KTS MPH feet Rate Location/Type
07:00PM 28.2333 -81.3667 221° Southwest 100 115 1,600  Level Orlando TRACON
07:01PM 28.2167 -81.3833 221° Southwest 80 92 1,500 -60 Descending Orlando TRACON
07:02PM 28.2167 -81.4000 270° West 74 85 1,500  Level Orlando TRACON
07:03PM 28.2000 -81.4167 221° Southwest 90 104 1,500 240 Level Orlando TRACON
07:04PM 28.1833 -81.4167 180° South 74 85 2,100 540 Climbing Orlando TRACON
07:05PM 28.1667 -81.4333 221° Southwest 72 83 2,600 480 Climbing Orlando TRACON
07:07PM 28.1333 -81.4333 180° South 73 84 3,200 480 Climbing Orlando TRACON
07:07PM 28.1167 -81.4500 221° Southwest 71 82 3,600 180 Climbing Orlando TRACON
07:08PM 28.1000 -81.4500 180° South 79 91 3,600 -60 Level Orlando TRACON
07:10PM 28.0833 -81.4667 221° Southwest 88 101 3,500 -60 Descending Orlando TRACON
07:11PM 28.0667 -81.5000 240° Southwest 81 93 3,500  Level Orlando TRACON
07:11PM 28.0667 -81.5167 270° West 81 93 3,600  Climbing Orlando TRACON
07:12PM 28.0500 -81.5500 240° Southwest 90 104 3,600 -60 Level Orlando TRACON
07:13PM 28.0500 -81.5667 270° West 95 109 3,500 -60 Descending Orlando TRACON
07:14PM 28.0333 -81.6000 240° Southwest 89 102 3,500  Level Orlando TRACON
07:16PM 28.0061 -81.6109 199° South  Level FlightAware Approximate
07:17PM 28.0167 -81.6667 222° Southwest 85 98 3,500  Level Tampa TRACON
07:18PM 27.9833 -81.6833 204° Southwest 92 106 3,500  Level Tampa TRACON
07:19PM 27.9667 -81.7000 221° Southwest 86 99 3,500 60 Level Tampa TRACON
07:20PM 27.9500 -81.7167 221° Southwest 85 98 3,700 300 Climbing Tampa TRACON
07:21PM 27.9333 -81.7333 221° Southwest 80 92 4,100 360 Climbing Tampa TRACON
07:22PM 27.9167 -81.7500 221° Southwest 78 90 4,500 240 Climbing Tampa TRACON
07:23PM 27.8477 -81.7363 222° Southwest  Level FlightAware Approximate
07:23PM 27.9000 -81.7667 221° Southwest 88 101 4,600  Level Tampa TRACON
07:24PM 27.8667 -81.7833 204° Southwest 96 110 4,600  Level Tampa TRACON
07:25PM 27.8500 -81.8000 221° Southwest 100 115 4,600 -60 Level Tampa TRACON
07:26PM 27.8333 -81.8167 221° Southwest 102 117 4,500 -60 Descending Tampa TRACON
07:27PM 27.8167 -81.8333 221° Southwest 97 112 4,500  Level Tampa TRACON
07:28PM 27.8000 -81.8500 221° Southwest 87 100 4,600  Climbing Tampa TRACON
07:29PM 27.7833 -81.8667 222° Southwest 88 101 4,600  Level Tampa TRACON
07:30PM 27.7500 -81.9000 222° Southwest 99 114 4,600  Level Tampa TRACON
07:31PM 27.7500 -81.9167 270° West 99 114 4,600  Level Tampa TRACON
07:32PM 27.7167 -81.9333 204° Southwest 94 108 4,600  Level Tampa TRACON
07:33PM 27.7000 -81.9500 222° Southwest 95 109 4,600  Level Tampa TRACON
07:34PM 27.6667 -81.9667 204° Southwest 96 110 4,600  Level Tampa TRACON
07:35PM 27.6500 -81.9833 222° Southwest 96 110 4,600  Level Tampa TRACON
07:36PM 27.6333 -82.0000 222° Southwest 93 107 4,600  Level Tampa TRACON
07:37PM 27.6000 -82.0167 204° Southwest 95 109 4,600  Level Tampa TRACON
07:38PM 27.5833 -82.0333 222° Southwest 95 109 4,600  Level Tampa TRACON
07:39PM 27.5667 -82.0333 180° South 95 109 4,600  Level Tampa TRACON
07:40PM 27.5333 -82.0667 222° Southwest 95 109 4,600  Level Tampa TRACON
07:41PM 27.5167 -82.0667 180° South 94 108 4,600  Level Tampa TRACON
07:42PM 27.5000 -82.0833 222° Southwest 94 108 4,600  Level Tampa TRACON
07:43PM 27.4667 -82.1167 222° Southwest 92 106 4,600  Level Tampa TRACON
07:44PM 27.4500 -82.1167 180° South 95 109 4,600  Level Tampa TRACON
07:45PM 27.4333 -82.1500 241° Southwest 93 107 4,600 -60 Level Tampa TRACON
07:46PM 27.4167 -82.1667 222° Southwest 95 109 4,500  Descending Tampa TRACON
07:47PM 27.4000 -82.1833 222° Southwest 89 102 4,600  Climbing Tampa TRACON
07:48PM 27.3667 -82.2000 204° Southwest 92 106 4,600  Level Tampa TRACON
07:49PM 27.3500 -82.2167 222° Southwest 93 107 4,600  Level Tampa TRACON
07:50PM 27.3333 -82.2333 222° Southwest 94 108 4,600 -300 Level Tampa TRACON
07:51PM 27.3167 -82.2500 222° Southwest 94 108 4,100 -600 Descending Tampa TRACON
07:52PM 27.2833 -82.2667 204° Southwest 95 109 3,500 -600 Descending Tampa TRACON
07:53PM 27.2667 -82.2833 222° Southwest 95 109 2,900 -480 Descending Tampa TRACON
07:54PM 27.2333 -82.3000 204° Southwest 98 113 2,500 -180 Descending Tampa TRACON
07:55PM 27.2167 -82.3167 222° Southwest 94 108 2,600  Climbing Tampa TRACON
07:56PM 27.2000 -82.3167 180° South 99 114 2,600 -60 Level Tampa TRACON
07:58PM 27.1755 -82.3473 228° Southwest  Level FlightAware Approximate
08:05PM 27.0667 -82.4333 204° Southwest  Level FlightAware Approximate
08:06PM 27.0716 -82.4403 204° Southwest  Level Estimated
08:07PM 27.0716 -82.4403 204° Southwest  Level Estimated
08:08PM 27.0716 -82.4403 204° Southwest  Level Estimated
08:09PM 27.0716 -82.4403 204° Southwest  Level Estimated
08:10PM 27.0716 -82.4403 204° Southwest  Level Estimated
08:11PM 27.0716 -82.4403 204° Southwest  Level Estimated
08:12PM 27.0716 -82.4403 204° Southwest  Level Estimated
08:13PM 27.0716 -82.4403 204° Southwest  Level Estimated
08:14PM 27.0716 -82.4403 204° Southwest  Level Estimated
08:15PM 27.0716 -82.4403 204° Southwest  Level Estimated
08:16PM 27.0716 -82.4403 204° Southwest  Level Estimated
08:17PM 27.0716 -82.4403 204° Southwest  Level Estimated
08:18PM 27.0716 -82.4403 204° Southwest  Level Estimated
08:19PM 27.0716 -82.4403 204° Southwest  Level Estimated
08:20PM 27.0716 -82.4403 204° Southwest  Level Estimated
08:21PM 27.0716 -82.4403 204° Southwest  Level Estimated
08:22PM 27.0716 -82.4403 204° Southwest  Level Estimated
08:23PM 27.0716 -82.4403 204° Southwest  Level Estimated
08:24PM 27.0716 -82.4403 204° Southwest  Level Estimated
08:25PM 27.0716 -82.4403 204° Southwest  Level Estimated
08:26PM 27.0716 -82.4403 204° Southwest  Level Estimated
08:27PM 27.0716 -82.4403 204° Southwest  Level Estimated
09:12PM 27.1167 -82.4500 204° Southwest 89 102 2,200  Level Tampa TRACON
09:13PM 27.1333 -82.4500 360° North 89 102 2,600 480 Climbing Tampa TRACON
09:14PM 27.1667 -82.4500 360° North 86 99 3,100 480 Climbing Tampa TRACON
09:15PM 27.1833 -82.4500 360° North 86 99 3,600 480 Climbing Tampa TRACON
09:16PM 27.2167 -82.4500 360° North 90 104 4,100 480 Climbing Tampa TRACON
09:17PM 27.2333 -82.4667 318° Northwest 86 99 4,600 420 Climbing Tampa TRACON
09:18PM 27.2667 -82.4667 360° North 87 100 5,000 360 Climbing Tampa TRACON
09:19PM 27.2833 -82.4667 360° North 93 107 5,400 300 Climbing Tampa TRACON
09:20PM 27.3167 -82.4667 360° North 95 109 5,600 60 Climbing Tampa TRACON
09:21PM 27.3333 -82.4500 42° Northeast 100 115 5,600  Level Tampa TRACON
09:22PM 27.3667 -82.4500 360° North 101 116 5,600 -60 Level Tampa TRACON
09:23PM 27.4000 -82.4500 360° North 102 117 5,500 -60 Descending Tampa TRACON
09:24PM 27.4167 -82.4500 360° North 102 117 5,500  Level Tampa TRACON
09:25PM 27.4500 -82.4500 360° North 100 115 5,600  Climbing Tampa TRACON
09:26PM 27.4833 -82.4333 24° Northeast 100 115 5,600  Level Tampa TRACON
09:27PM 27.5000 -82.4333 360° North 103 119 5,600 -60 Level Tampa TRACON
09:28PM 27.5333 -82.4333 360° North 104 120 5,500 -60 Descending Tampa TRACON
09:29PM 27.5667 -82.4333 360° North 105 121 5,500  Level Tampa TRACON
09:30PM 27.6000 -82.4333 360° North 103 119 5,500  Level Tampa TRACON
09:31PM 27.6167 -82.4333 360° North 104 120 5,500  Level Tampa TRACON
09:32PM 27.6500 -82.4167 24° Northeast 105 121 5,500  Level Tampa TRACON
09:33PM 27.6667 -82.3833 61° Northeast 109 125 5,600  Climbing Tampa TRACON
09:34PM 27.6833 -82.3667 42° Northeast 114 131 5,600 -60 Level Tampa TRACON
09:35PM 27.7167 -82.3333 42° Northeast 113 130 5,500 -60 Descending Tampa TRACON
09:36PM 27.7333 -82.3000 61° Northeast 113 130 5,500  Level Tampa TRACON
09:37PM 27.7500 -82.2833 42° Northeast 112 129 5,500  Level Tampa TRACON
09:38PM 27.7667 -82.2500 61° Northeast 113 130 5,500  Level Tampa TRACON
09:39PM 27.8000 -82.2333 24° Northeast 110 127 5,600  Climbing Tampa TRACON
09:40PM 27.8167 -82.2167 41° Northeast 108 124 5,600  Level Tampa TRACON
09:41PM 27.8333 -82.1833 61° Northeast 114 131 5,600  Level Tampa TRACON
09:42PM 27.8667 -82.1500 41° Northeast 115 132 5,600  Level Tampa TRACON
09:43PM 27.8833 -82.1333 41° Northeast 114 131 5,600 -60 Level Tampa TRACON
09:44PM 27.9000 -82.1000 60° Northeast 117 135 5,500  Descending Tampa TRACON
09:45PM 27.9167 -82.0833 41° Northeast 113 130 5,600 60 Climbing Tampa TRACON